Time;durP1;ratioP1;P1;durP2;ratioP2;P2;SDS_P1;SDS_P2;PMS_P1;PMS_P2;Temp;Humidity;BMP_temperature;BMP_pressure;BME280_temperature;BME280_humidity;BME280_pressure;Samples;Min_cycle;Max_cycle;Signal;HPM_P1;HPM_P2
2023/09/25 00:02:00;;;;;;;3.37;3.10;;;;;;;7.74;100.00;97857.19;4919319;29;20286;-60
2023/09/25 00:04:28;;;;;;;3.43;3.23;;;;;;;7.72;100.00;97855.69;4921306;28;20704;-61
2023/09/25 00:06:56;;;;;;;3.20;3.00;;;;;;;7.73;100.00;97857.34;4917538;29;20250;-58
2023/09/25 00:09:27;;;;;;;3.57;3.27;;;;;;;7.77;100.00;97861.34;4921300;29;20295;-61
2023/09/25 00:11:56;;;;;;;3.53;3.20;;;;;;;7.74;100.00;97859.00;4916238;29;20211;-60
2023/09/25 00:14:24;;;;;;;3.30;3.10;;;;;;;7.71;100.00;97862.75;4919231;29;20322;-61
2023/09/25 00:16:52;;;;;;;3.43;3.23;;;;;;;7.74;100.00;97869.56;4916703;29;20881;-62
2023/09/25 00:19:20;;;;;;;3.80;3.50;;;;;;;7.74;100.00;97865.09;4917879;29;20283;-60
2023/09/25 00:21:48;;;;;;;4.00;3.70;;;;;;;7.78;100.00;97868.28;4881988;29;20302;-61
2023/09/25 00:24:16;;;;;;;3.43;3.23;;;;;;;7.75;100.00;97848.28;4874505;29;20647;-61
2023/09/25 00:26:44;;;;;;;3.70;3.50;;;;;;;7.68;100.00;97848.09;4917770;29;20441;-62
2023/09/25 00:29:14;;;;;;;3.13;2.93;;;;;;;7.66;100.00;97851.84;4841264;29;20643;-61
2023/09/25 00:31:42;;;;;;;3.80;3.40;;;;;;;7.65;100.00;97853.66;4902913;29;20707;-61
2023/09/25 00:34:09;;;;;;;3.47;3.10;;;;;;;7.60;100.00;97839.25;4917757;29;20231;-60
2023/09/25 00:36:37;;;;;;;3.10;2.90;;;;;;;7.57;100.00;97843.00;4918618;29;20588;-61
2023/09/25 00:39:07;;;;;;;3.97;3.60;;;;;;;7.59;100.00;97843.72;4916356;29;20230;-60
2023/09/25 00:41:35;;;;;;;3.67;3.47;;;;;;;7.51;100.00;97846.22;4918467;29;20307;-61
2023/09/25 00:44:03;;;;;;;3.57;3.27;;;;;;;7.47;100.00;97851.00;4919321;29;20199;-61
2023/09/25 00:46:32;;;;;;;4.33;4.03;;;;;;;7.49;100.00;97850.81;4918866;29;20255;-61
2023/09/25 00:49:00;;;;;;;3.90;3.70;;;;;;;7.48;100.00;97857.06;4918824;29;20218;-62
2023/09/25 00:51:28;;;;;;;3.70;3.50;;;;;;;7.38;100.00;97854.50;4917934;29;20226;-60
2023/09/25 00:53:57;;;;;;;4.10;3.80;;;;;;;7.38;100.00;97854.50;4904857;29;20247;-61
2023/09/25 00:56:24;;;;;;;3.60;3.40;;;;;;;7.35;100.00;97852.16;4894257;29;20643;-60
2023/09/25 00:58:53;;;;;;;3.60;3.30;;;;;;;7.32;100.00;97852.44;4876900;29;20311;-62
2023/09/25 01:01:22;;;;;;;3.93;3.63;;;;;;;7.38;100.00;97860.59;4861362;29;20211;-59
2023/09/25 01:03:51;;;;;;;3.80;3.50;;;;;;;7.35;100.00;97854.78;4872758;29;20211;-61
2023/09/25 01:06:19;;;;;;;4.13;3.83;;;;;;;7.36;100.00;97856.44;4916604;29;20243;-60
2023/09/25 01:08:47;;;;;;;4.07;3.63;;;;;;;7.34;100.00;97856.59;4919255;29;20306;-62
2023/09/25 01:11:16;;;;;;;3.70;3.50;;;;;;;7.33;100.00;97862.00;4919966;29;20203;-61
2023/09/25 01:13:43;;;;;;;4.13;3.83;;;;;;;7.23;100.00;97862.09;4922225;29;20315;-61
2023/09/25 01:16:11;;;;;;;4.10;3.87;;;;;;;7.22;100.00;97850.69;4922896;29;20231;-59
2023/09/25 01:18:39;;;;;;;4.33;4.03;;;;;;;7.18;100.00;97853.75;4922206;29;20211;-63
2023/09/25 01:21:08;;;;;;;4.00;3.70;;;;;;;7.25;100.00;97849.59;4921719;29;20243;-62
2023/09/25 01:23:37;;;;;;;4.43;4.03;;;;;;;7.22;100.00;97852.50;4922628;29;20203;-63
2023/09/25 01:26:06;;;;;;;3.83;3.63;;;;;;;7.19;100.00;97852.78;4922476;29;20227;-62
2023/09/25 01:28:34;;;;;;;4.20;3.87;;;;;;;7.13;100.00;97846.31;4898095;29;23153;-59
2023/09/25 01:31:03;;;;;;;3.60;3.40;;;;;;;7.14;100.00;97844.47;4913833;29;20298;-60
2023/09/25 01:33:32;;;;;;;3.97;3.77;;;;;;;7.01;100.00;97832.47;4864331;29;21390;-60
2023/09/25 01:36:00;;;;;;;4.50;4.10;;;;;;;7.04;100.00;97840.09;4886638;29;20214;-61
2023/09/25 01:38:28;;;;;;;3.97;3.67;;;;;;;7.03;100.00;97837.63;4917710;29;21409;-59
2023/09/25 01:40:57;;;;;;;4.47;4.07;;;;;;;6.97;100.00;97831.13;4923653;29;20278;-60
2023/09/25 01:43:25;;;;;;;3.93;3.63;;;;;;;6.96;100.00;97829.47;4923816;29;20279;-60
2023/09/25 01:45:53;;;;;;;3.67;3.47;;;;;;;6.98;100.00;97831.94;4921106;29;20467;-57
2023/09/25 01:48:20;;;;;;;5.37;5.07;;;;;;;6.94;100.00;97828.78;4920781;29;20228;-61
2023/09/25 01:50:48;;;;;;;7.03;6.63;;;;;;;6.90;100.00;97827.41;4920249;29;20865;-63
2023/09/25 01:53:16;;;;;;;4.33;4.03;;;;;;;6.77;100.00;97839.06;4921835;29;20230;-62
2023/09/25 01:55:43;;;;;;;5.03;4.47;;;;;;;6.72;100.00;97840.50;4918967;29;20691;-60
2023/09/25 01:58:12;;;;;;;3.90;3.70;;;;;;;6.76;100.00;97833.97;4922832;29;20259;-61
2023/09/25 02:00:40;;;;;;;4.50;4.20;;;;;;;6.75;100.00;97827.03;4921665;29;20595;-62
2023/09/25 02:03:08;;;;;;;4.27;4.03;;;;;;;6.72;100.00;97832.59;4922058;29;20303;-61
2023/09/25 02:05:36;;;;;;;3.90;3.70;;;;;;;6.74;100.00;97826.19;4885642;29;20318;-62
2023/09/25 02:08:04;;;;;;;4.47;4.07;;;;;;;6.71;100.00;97825.66;4920940;29;20262;-62
2023/09/25 02:10:34;;;;;;;4.53;4.13;;;;;;;6.65;100.00;97824.44;4817863;28;20210;-61
2023/09/25 02:13:02;;;;;;;4.57;4.27;;;;;;;6.60;100.00;97818.75;4922069;29;20199;-58
2023/09/25 02:15:31;;;;;;;3.87;3.67;;;;;;;6.57;100.00;97821.69;4918617;29;20295;-62
2023/09/25 02:17:59;;;;;;;4.30;3.90;;;;;;;6.51;100.00;97823.91;4924456;29;20235;-61
2023/09/25 02:20:27;;;;;;;3.63;3.43;;;;;;;6.41;100.00;97815.19;4916707;29;20227;-61
2023/09/25 02:22:54;;;;;;;4.00;3.70;;;;;;;6.40;100.00;97810.91;4923522;29;20295;-61
2023/09/25 02:25:22;;;;;;;4.60;4.30;;;;;;;6.45;100.00;97810.50;4916497;29;20234;-61
2023/09/25 02:27:50;;;;;;;4.20;3.83;;;;;;;6.44;100.00;97811.47;4923232;29;20247;-61
2023/09/25 02:30:17;;;;;;;4.57;4.27;;;;;;;6.37;100.00;97811.19;4918755;29;20825;-61
2023/09/25 02:32:47;;;;;;;4.00;3.70;;;;;;;6.39;100.00;97803.97;4924083;29;20203;-62
2023/09/25 02:35:15;;;;;;;4.07;3.87;;;;;;;6.41;100.00;97803.84;4918119;29;20304;-62
2023/09/25 02:37:44;;;;;;;4.87;4.47;;;;;;;6.41;100.00;97803.84;4922284;29;20239;-62
2023/09/25 02:40:13;;;;;;;5.00;4.60;;;;;;;6.53;100.00;97800.06;4811565;29;20222;-62
2023/09/25 02:42:42;;;;;;;4.67;4.37;;;;;;;6.62;100.00;97790.50;4920537;29;20623;-61
2023/09/25 02:45:10;;;;;;;4.90;4.50;;;;;;;6.72;100.00;97791.28;4919117;29;20211;-61
2023/09/25 02:47:38;;;;;;;4.80;4.50;;;;;;;6.80;100.00;97796.63;4920574;29;20220;-62
2023/09/25 02:50:08;;;;;;;5.17;4.70;;;;;;;6.88;100.00;97793.28;4921005;29;20246;-62
2023/09/25 02:52:37;;;;;;;4.53;4.33;;;;;;;6.92;100.00;97788.56;4921802;29;20648;-62
2023/09/25 02:55:05;;;;;;;4.90;4.60;;;;;;;6.89;100.00;97794.13;4917650;29;20764;-60
2023/09/25 02:57:33;;;;;;;5.17;4.73;;;;;;;6.94;100.00;97792.69;4921719;29;20306;-61
2023/09/25 03:00:01;;;;;;;5.70;5.10;;;;;;;6.93;100.00;97788.41;4919526;29;20873;-62
2023/09/25 03:02:29;;;;;;;9.83;5.07;;;;;;;6.96;100.00;97784.66;4919880;29;20219;-62
2023/09/25 03:04:57;;;;;;;4.70;4.40;;;;;;;6.95;100.00;97775.09;4919599;29;20216;-61
2023/09/25 03:07:26;;;;;;;5.70;4.40;;;;;;;6.95;100.00;97775.91;4921693;29;20314;-60
2023/09/25 03:09:53;;;;;;;4.97;4.47;;;;;;;6.90;100.00;97780.81;4918516;29;20215;-60
2023/09/25 03:12:22;;;;;;;5.13;4.73;;;;;;;6.89;100.00;97778.34;4866054;29;22857;-61
2023/09/25 03:14:50;;;;;;;4.50;4.20;;;;;;;6.86;100.00;97774.16;4874417;28;20216;-63
2023/09/25 03:17:17;;;;;;;4.43;4.13;;;;;;;6.82;100.00;97762.28;4920811;29;20658;-64
2023/09/25 03:19:45;;;;;;;4.53;4.23;;;;;;;6.84;100.00;97765.59;4917971;29;20220;-63
2023/09/25 03:22:13;;;;;;;4.73;4.33;;;;;;;6.84;100.00;97767.41;4922114;29;20230;-65
2023/09/25 03:24:42;;;;;;;4.60;4.30;;;;;;;6.82;100.00;97762.28;4915077;29;20299;-63
2023/09/25 03:27:10;;;;;;;4.50;4.20;;;;;;;6.77;100.00;97759.25;4918060;29;20322;-63
2023/09/25 03:29:38;;;;;;;4.57;4.37;;;;;;;6.78;100.00;97756.44;4918163;29;20650;-64
2023/09/25 03:32:05;;;;;;;4.90;4.43;;;;;;;6.69;100.00;97753.88;4921184;29;20820;-61
2023/09/25 03:34:33;;;;;;;4.97;4.60;;;;;;;6.70;100.00;97753.72;4909279;29;20796;-61
2023/09/25 03:37:01;;;;;;;4.90;4.57;;;;;;;6.68;100.00;97760.13;4921747;29;20391;-60
2023/09/25 03:39:28;;;;;;;5.33;4.93;;;;;;;6.64;100.00;97759.56;4913568;29;20299;-64
2023/09/25 03:41:57;;;;;;;4.70;4.30;;;;;;;6.62;100.00;97762.34;4871162;29;20219;-63
2023/09/25 03:44:25;;;;;;;4.83;4.53;;;;;;;6.64;100.00;97770.94;4919569;29;20811;-63
2023/09/25 03:46:53;;;;;;;5.40;4.90;;;;;;;6.62;100.00;97756.25;4812150;29;20236;-62
2023/09/25 03:49:20;;;;;;;5.47;5.03;;;;;;;6.58;100.00;97754.88;4921275;29;20208;-63
2023/09/25 03:51:48;;;;;;;4.67;4.37;;;;;;;6.57;100.00;97753.22;4918473;29;20211;-62
2023/09/25 03:54:16;;;;;;;4.97;4.67;;;;;;;6.58;100.00;97762.78;4920810;29;20199;-63
2023/09/25 03:56:44;;;;;;;4.60;4.40;;;;;;;6.41;100.00;97759.09;4868576;29;20235;-62
2023/09/25 03:59:13;;;;;;;5.13;4.73;;;;;;;6.46;100.00;97759.50;4923295;29;20214;-61
2023/09/25 04:01:40;;;;;;;5.30;4.90;;;;;;;6.48;100.00;97760.19;4913166;29;20330;-62
2023/09/25 04:04:08;;;;;;;5.33;5.00;;;;;;;6.52;100.00;97761.53;4922972;29;20596;-63
2023/09/25 04:06:36;;;;;;;5.00;4.70;;;;;;;6.49;100.00;97757.41;4917578;29;20326;-63
2023/09/25 04:09:06;;;;;;;4.80;4.50;;;;;;;6.40;100.00;97758.25;4925091;29;20204;-61
2023/09/25 04:11:35;;;;;;;4.77;4.53;;;;;;;6.43;100.00;97754.53;4917118;29;20299;-62
2023/09/25 04:14:03;;;;;;;5.63;5.13;;;;;;;6.48;100.00;97765.44;4921170;29;20255;-63
2023/09/25 04:16:33;;;;;;;5.37;4.90;;;;;;;6.40;100.00;97770.59;4807894;29;20335;-63
2023/09/25 04:19:04;;;;;;;4.90;4.60;;;;;;;6.37;100.00;97766.44;4871275;29;20367;-62
2023/09/25 04:21:32;;;;;;;7.10;4.90;;;;;;;6.40;100.00;97767.97;4917949;29;20582;-62
2023/09/25 04:24:01;;;;;;;5.03;4.67;;;;;;;6.33;100.00;97758.03;4918338;29;20203;-61
2023/09/25 04:26:30;;;;;;;5.00;4.60;;;;;;;6.38;100.00;97765.47;4920362;29;20236;-64
2023/09/25 04:28:58;;;;;;;5.60;5.03;;;;;;;6.31;100.00;97754.69;4914365;29;20342;-60
2023/09/25 04:31:28;;;;;;;5.20;4.80;;;;;;;6.29;100.00;97755.81;4920127;29;20212;-62
2023/09/25 04:34:00;;;;;;;5.50;5.20;;;;;;;6.28;100.00;97757.63;4916966;29;20774;-59
2023/09/25 04:36:29;;;;;;;5.47;5.10;;;;;;;6.23;100.00;97758.03;4918518;29;20227;-60
2023/09/25 04:38:57;;;;;;;5.30;5.00;;;;;;;6.24;100.00;97753.59;4916747;29;20262;-59
2023/09/25 04:41:26;;;;;;;6.03;5.63;;;;;;;6.16;100.00;97754.31;4920305;29;20199;-61
2023/09/25 04:43:54;;;;;;;6.40;5.90;;;;;;;6.13;100.00;97759.88;4912748;29;20747;-60
2023/09/25 04:46:24;;;;;;;5.70;5.20;;;;;;;6.25;100.00;97765.81;4917584;29;20310;-61
2023/09/25 04:48:52;;;;;;;6.17;5.67;;;;;;;6.25;100.00;97764.97;4806132;29;20212;-64
2023/09/25 04:51:21;;;;;;;5.40;5.10;;;;;;;6.21;100.00;97759.13;4921706;29;20216;-60
2023/09/25 04:53:49;;;;;;;5.80;5.40;;;;;;;6.23;100.00;97762.47;4917533;29;20842;-61
2023/09/25 04:56:21;;;;;;;5.27;4.87;;;;;;;6.16;100.00;97758.75;4916980;29;20315;-62
2023/09/25 04:58:49;;;;;;;5.97;5.43;;;;;;;6.22;100.00;97766.06;4915010;29;20243;-62
2023/09/25 05:01:17;;;;;;;5.60;5.23;;;;;;;6.26;100.00;97758.72;4918936;29;20278;-62
2023/09/25 05:03:45;;;;;;;5.57;5.17;;;;;;;6.27;100.00;97757.75;4913288;29;20211;-61
2023/09/25 05:06:12;;;;;;;5.40;5.00;;;;;;;6.19;100.00;97756.66;4921189;29;20375;-59
2023/09/25 05:08:43;;;;;;;6.07;5.67;;;;;;;6.18;100.00;97760.28;4915751;29;20781;-61
2023/09/25 05:11:11;;;;;;;5.30;5.00;;;;;;;6.21;100.00;97761.78;4921547;29;20976;-60
2023/09/25 05:13:39;;;;;;;6.37;5.87;;;;;;;6.26;100.00;97770.09;4916016;29;20645;-61
2023/09/25 05:16:07;;;;;;;6.10;5.70;;;;;;;6.25;100.00;97771.06;4872316;29;20324;-62
2023/09/25 05:18:35;;;;;;;6.07;5.67;;;;;;;6.25;100.00;97772.84;4920296;29;20598;-59
2023/09/25 05:21:02;;;;;;;5.97;5.57;;;;;;;6.28;100.00;97770.78;4804664;29;20977;-60
2023/09/25 05:23:32;;;;;;;6.73;5.20;;;;;;;6.27;100.00;97774.38;4872423;29;20233;-63
2023/09/25 05:26:01;;;;;;;6.20;5.70;;;;;;;6.34;100.00;97782.53;4919418;29;20282;-61
2023/09/25 05:28:29;;;;;;;7.00;6.50;;;;;;;6.38;100.00;97776.00;4916145;29;20238;-60
2023/09/25 05:30:58;;;;;;;5.90;5.50;;;;;;;6.46;100.00;97777.94;4919587;29;20896;-62
2023/09/25 05:33:26;;;;;;;6.10;5.70;;;;;;;6.47;100.00;97782.22;4917862;29;20208;-61
2023/09/25 05:35:54;;;;;;;7.07;6.23;;;;;;;6.48;100.00;97770.72;4920697;29;20865;-61
2023/09/25 05:38:21;;;;;;;6.50;6.00;;;;;;;6.57;100.00;97771.66;4880741;29;20680;-62
2023/09/25 05:40:49;;;;;;;6.80;6.20;;;;;;;6.53;100.00;97776.38;4915873;29;20298;-63
2023/09/25 05:43:19;;;;;;;6.77;6.37;;;;;;;6.70;100.00;97771.34;4918074;29;20310;-62
2023/09/25 05:45:47;;;;;;;5.87;5.43;;;;;;;6.77;100.00;97772.41;4916768;29;20654;-63
2023/09/25 05:48:15;;;;;;;5.87;5.50;;;;;;;7.09;100.00;97758.78;4912320;29;20231;-61
2023/09/25 05:50:42;;;;;;;6.93;6.43;;;;;;;7.55;100.00;97772.94;4918497;29;20243;-58
2023/09/25 05:53:10;;;;;;;6.87;6.40;;;;;;;8.16;100.00;97773.94;4807555;29;20634;-62
2023/09/25 05:55:38;;;;;;;6.93;6.43;;;;;;;8.86;100.00;97766.94;4920836;29;20295;-65
2023/09/25 05:58:07;;;;;;;5.77;5.37;;;;;;;9.15;100.00;97762.28;4873991;29;20228;-62
2023/09/25 06:00:37;;;;;;;6.10;5.70;;;;;;;8.96;100.00;97756.25;4920807;29;20215;-61
2023/09/25 06:03:05;;;;;;;5.97;5.57;;;;;;;8.73;100.00;97750.72;4920193;29;20204;-60
2023/09/25 06:05:33;;;;;;;5.47;5.17;;;;;;;8.63;100.00;97745.53;4918075;29;20235;-61
2023/09/25 06:08:01;;;;;;;6.03;5.63;;;;;;;8.35;100.00;97746.50;4920930;29;20227;-60
2023/09/25 06:10:28;;;;;;;5.53;5.23;;;;;;;8.29;100.00;97755.06;4924150;29;20212;-63
2023/09/25 06:12:56;;;;;;;5.23;4.93;;;;;;;8.20;100.00;97756.81;4884450;29;20302;-61
2023/09/25 06:15:24;;;;;;;5.30;5.00;;;;;;;8.15;100.00;97769.66;4922559;29;20298;-59
2023/09/25 06:17:56;;;;;;;4.87;4.53;;;;;;;8.21;100.00;97762.94;4904073;29;20330;-61
2023/09/25 06:20:26;;;;;;;5.60;5.20;;;;;;;8.27;100.00;97762.31;4920922;29;20594;-61
2023/09/25 06:22:53;;;;;;;5.67;5.17;;;;;;;8.25;100.00;97765.09;4872742;29;20223;-62
2023/09/25 06:25:21;;;;;;;5.30;4.97;;;;;;;8.15;100.00;97747.72;4921277;29;20287;-62
2023/09/25 06:27:49;;;;;;;4.73;4.40;;;;;;;8.34;100.00;97765.97;4791230;29;20422;-62
2023/09/25 06:30:19;;;;;;;5.70;5.20;;;;;;;8.46;100.00;97761.28;4883096;29;20243;-58
2023/09/25 06:32:47;;;;;;;5.47;5.13;;;;;;;8.60;100.00;97762.53;4922114;29;20684;-62
2023/09/25 06:35:17;;;;;;;5.50;5.10;;;;;;;8.73;100.00;97759.47;4918160;29;20279;-61
2023/09/25 06:37:45;;;;;;;4.63;4.23;;;;;;;8.78;100.00;97765.09;4924210;29;20247;-59
2023/09/25 06:40:15;;;;;;;5.70;5.30;;;;;;;8.94;100.00;97764.34;4888854;29;20794;-61
2023/09/25 06:42:43;;;;;;;5.47;5.17;;;;;;;8.97;100.00;97756.09;4924591;29;20239;-61
2023/09/25 06:45:11;;;;;;;5.83;5.43;;;;;;;9.06;100.00;97761.41;4882785;29;20212;-61
2023/09/25 06:47:40;;;;;;;5.70;5.30;;;;;;;9.11;100.00;97759.13;4920184;29;20234;-58
2023/09/25 06:50:08;;;;;;;6.67;5.90;;;;;;;9.28;100.00;97757.34;4919179;29;20204;-60
2023/09/25 06:52:37;;;;;;;6.07;5.57;;;;;;;9.33;100.00;97762.16;4920554;29;20250;-59
2023/09/25 06:55:06;;;;;;;5.70;5.20;;;;;;;9.51;100.00;97757.56;4917645;29;20294;-61
2023/09/25 06:57:33;;;;;;;5.33;4.90;;;;;;;9.60;100.00;97758.41;4923539;29;20326;-61
2023/09/25 07:00:01;;;;;;;5.73;5.33;;;;;;;9.62;100.00;97761.72;4811096;29;20223;-61
2023/09/25 07:02:31;;;;;;;5.00;4.60;;;;;;;9.64;100.00;97757.06;4915919;29;20651;-62
2023/09/25 07:04:59;;;;;;;5.03;4.60;;;;;;;9.60;100.00;97762.84;4917528;29;20211;-60
2023/09/25 07:07:27;;;;;;;5.07;4.67;;;;;;;9.69;100.00;97754.75;4919994;29;21126;-61
2023/09/25 07:09:56;;;;;;;5.90;5.50;;;;;;;9.89;100.00;97757.09;4919823;29;20349;-61
2023/09/25 07:12:25;;;;;;;6.23;5.27;;;;;;;10.03;100.00;97766.16;4922406;29;20211;-62
2023/09/25 07:14:56;;;;;;;6.37;5.20;;;;;;;10.11;100.00;97760.91;4883307;29;20216;-62
2023/09/25 07:17:24;;;;;;;5.57;5.07;;;;;;;10.28;100.00;97753.75;4923048;29;20231;-61
2023/09/25 07:19:52;;;;;;;5.97;5.47;;;;;;;10.41;100.00;97758.53;4916770;29;20307;-64
2023/09/25 07:22:21;;;;;;;4.80;4.50;;;;;;;10.47;100.00;97758.88;4918757;29;20208;-61
2023/09/25 07:24:49;;;;;;;4.70;4.40;;;;;;;10.66;100.00;97761.16;4911986;29;20264;-62
2023/09/25 07:27:18;;;;;;;4.73;4.43;;;;;;;10.76;100.00;97760.13;4922343;29;20750;-62
2023/09/25 07:29:46;;;;;;;4.77;4.47;;;;;;;10.76;100.00;97760.97;4916972;29;20689;-63
2023/09/25 07:32:14;;;;;;;5.20;4.90;;;;;;;10.96;100.00;97758.72;4920680;29;20299;-61
2023/09/25 07:34:42;;;;;;;4.87;4.47;;;;;;;11.14;100.00;97765.59;4806192;29;20306;-62
2023/09/25 07:37:12;;;;;;;4.77;4.40;;;;;;;11.23;100.00;97759.28;4920293;29;20241;-61
2023/09/25 07:39:40;;;;;;;4.13;3.93;;;;;;;11.62;100.00;97765.50;4919046;29;20228;-61
2023/09/25 07:42:08;;;;;;;4.93;4.60;;;;;;;11.71;100.00;97758.31;4922105;29;20287;-61
2023/09/25 07:44:38;;;;;;;5.10;4.60;;;;;;;11.99;100.00;97758.56;4915531;29;20211;-62
2023/09/25 07:47:07;;;;;;;4.20;4.00;;;;;;;12.19;100.00;97760.78;4920657;29;20282;-63
2023/09/25 07:49:40;;;;;;;4.80;4.23;;;;;;;12.33;100.00;97734.41;4881094;29;20232;-62
2023/09/25 07:52:15;;;;;;;4.20;3.90;;;;;;;12.42;100.00;97752.75;4922685;29;20207;-61
2023/09/25 07:54:44;;;;;;;3.93;3.73;;;;;;;12.73;100.00;97762.41;4911648;29;20275;-63
2023/09/25 07:57:14;;;;;;;4.07;3.73;;;;;;;12.97;100.00;97770.25;4921940;29;20232;-63
2023/09/25 07:59:43;;;;;;;4.10;3.80;;;;;;;13.05;100.00;97762.19;4917628;29;20278;-62
2023/09/25 08:02:16;;;;;;;4.10;3.70;;;;;;;13.08;100.00;97764.47;4919811;29;20204;-62
2023/09/25 08:04:44;;;;;;;4.20;3.90;;;;;;;13.11;100.00;97765.94;4917597;29;20679;-61
2023/09/25 08:07:12;;;;;;;4.13;3.70;;;;;;;13.18;100.00;97767.66;4922967;29;20215;-60
2023/09/25 08:09:40;;;;;;;4.50;4.10;;;;;;;13.27;100.00;97768.38;4806321;29;20626;-58
2023/09/25 08:12:08;;;;;;;3.60;3.40;;;;;;;13.32;100.00;97763.31;4921346;29;20199;-60
2023/09/25 08:14:36;;;;;;;3.33;3.23;;;;;;;13.48;100.00;97765.97;4918696;29;20217;-61
2023/09/25 08:17:05;;;;;;;3.37;3.17;;;;;;;13.64;100.00;97775.56;4922566;29;20302;-61
2023/09/25 08:19:33;;;;;;;3.57;3.10;;;;;;;13.57;100.00;97768.34;4883882;29;20691;-63
2023/09/25 08:22:01;;;;;;;3.63;3.40;;;;;;;13.77;100.00;97777.53;4920760;28;20355;-61
2023/09/25 08:24:29;;;;;;;3.67;3.40;;;;;;;13.84;100.00;97770.44;4919638;29;20239;-62
2023/09/25 08:26:57;;;;;;;3.10;2.93;;;;;;;13.80;100.00;97769.97;4919990;29;20756;-61
2023/09/25 08:29:24;;;;;;;3.77;3.50;;;;;;;13.89;100.00;97762.69;4917646;29;20223;-62
2023/09/25 08:31:52;;;;;;;3.70;3.50;;;;;;;14.17;100.00;97765.38;4923295;29;20235;-61
2023/09/25 08:34:22;;;;;;;3.60;3.30;;;;;;;14.17;100.00;97765.38;4919813;29;20203;-63
2023/09/25 08:36:50;;;;;;;3.63;3.40;;;;;;;14.27;100.00;97759.72;4920621;29;20534;-62
2023/09/25 08:39:17;;;;;;;3.43;3.23;;;;;;;14.48;100.00;97758.84;4918432;29;20200;-62
2023/09/25 08:41:46;;;;;;;3.50;3.20;;;;;;;14.51;100.00;97757.66;4923055;29;20208;-62
2023/09/25 08:44:15;;;;;;;3.50;3.20;;;;;;;14.66;100.00;97751.38;4806786;29;20211;-63
2023/09/25 08:46:44;;;;;;;3.27;3.00;;;;;;;14.89;100.00;97759.09;4919944;29;20302;-62
2023/09/25 08:49:11;;;;;;;2.87;2.67;;;;;;;15.01;100.00;97757.56;4883383;29;20246;-60
2023/09/25 08:51:41;;;;;;;2.63;2.53;;;;;;;15.02;100.00;97751.19;4919800;29;20203;-60
2023/09/25 08:54:09;;;;;;;2.73;2.63;;;;;;;14.95;100.00;97750.31;4917126;29;20207;-61
2023/09/25 08:56:36;;;;;;;3.00;2.80;;;;;;;15.16;100.00;97751.22;4921344;29;20723;-63
2023/09/25 08:59:04;;;;;;;2.90;2.70;;;;;;;15.21;100.00;97745.31;4918503;29;20259;-61
2023/09/25 09:01:34;;;;;;;2.67;2.57;;;;;;;15.22;100.00;97739.75;4920766;29;20215;-59
2023/09/25 09:04:02;;;;;;;2.70;2.60;;;;;;;15.30;100.00;97744.09;4916018;29;20235;-61
2023/09/25 09:06:30;;;;;;;2.40;2.30;;;;;;;15.39;100.00;97742.88;4920791;29;20648;-61
2023/09/25 09:08:59;;;;;;;2.77;2.67;;;;;;;15.56;100.00;97742.53;4920250;29;20746;-62
2023/09/25 09:11:27;;;;;;;2.60;2.40;;;;;;;15.64;100.00;97747.69;4920736;29;20294;-61
2023/09/25 09:13:58;;;;;;;2.47;2.33;;;;;;;15.85;100.00;97741.34;4918057;29;20214;-61
2023/09/25 09:16:25;;;;;;;3.10;2.90;;;;;;;15.81;100.00;97736.59;4921561;29;20318;-61
2023/09/25 09:19:06;;;;;;;2.43;2.33;;;;;;;15.76;100.00;97723.88;4805506;29;20646;-59
2023/09/25 09:21:33;;;;;;;3.13;2.93;;;;;;;16.02;100.00;97733.78;4920440;29;20659;-61
2023/09/25 09:24:03;;;;;;;2.60;2.50;;;;;;;15.97;100.00;97728.22;4882055;29;20301;-62
2023/09/25 09:26:30;;;;;;;2.90;2.70;;;;;;;16.02;100.00;97724.91;4920280;29;20314;-61
2023/09/25 09:28:58;;;;;;;3.07;2.60;;;;;;;16.18;100.00;97710.31;4914926;29;20298;-61
2023/09/25 09:31:26;;;;;;;2.77;2.67;;;;;;;16.34;100.00;97722.44;4923257;29;20207;-62
2023/09/25 09:33:55;;;;;;;2.80;2.70;;;;;;;16.41;100.00;97723.22;4921017;29;20290;-60
2023/09/25 09:36:23;;;;;;;2.50;2.40;;;;;;;16.54;100.00;97725.06;4923016;29;20259;-61
2023/09/25 09:38:53;;;;;;;2.77;2.57;;;;;;;16.67;100.00;97729.56;4920967;29;20207;-61
2023/09/25 09:41:22;;;;;;;2.60;2.40;;;;;;;16.81;100.00;97718.81;4924434;29;20232;-60
2023/09/25 09:43:50;;;;;;;3.27;3.00;;;;;;;17.07;100.00;97721.44;4920137;29;20290;-63
2023/09/25 09:46:18;;;;;;;2.70;2.60;;;;;;;16.97;100.00;97729.06;4923798;29;20235;-60
2023/09/25 09:48:47;;;;;;;3.07;2.60;;;;;;;16.95;100.00;97711.56;4808861;29;20990;-62
2023/09/25 09:51:17;;;;;;;2.60;2.40;;;;;;;17.06;100.00;97717.13;4923966;29;20226;-62
2023/09/25 09:53:46;;;;;;;3.30;3.00;;;;;;;16.95;100.00;97700.84;4917697;29;20783;-61
2023/09/25 09:56:15;;;;;;;2.70;2.60;;;;;;;17.02;100.00;97707.88;4921916;29;20648;-60
2023/09/25 09:58:44;;;;;;;2.90;2.70;;;;;;;17.07;100.00;97710.72;4882558;29;21056;-61
2023/09/25 10:01:12;;;;;;;3.87;2.47;;;;;;;17.14;100.00;97707.19;4925784;29;20200;-61
2023/09/25 10:03:40;;;;;;;2.80;2.40;;;;;;;17.20;100.00;97700.97;4919478;29;20212;-62
2023/09/25 10:06:10;;;;;;;2.43;2.27;;;;;;;17.17;100.00;97701.41;4924476;29;20218;-63
2023/09/25 10:08:38;;;;;;;2.40;2.13;;;;;;;17.24;100.00;97704.91;4920624;29;20199;-62
2023/09/25 10:11:16;;;;;;;2.70;2.60;;;;;;;17.33;100.00;97706.28;4923735;29;20236;-63
2023/09/25 10:13:45;;;;;;;2.67;2.57;;;;;;;17.28;100.00;97705.28;4916483;29;20730;-62
2023/09/25 10:16:15;;;;;;;3.23;3.03;;;;;;;17.39;100.00;97691.19;4922496;29;20383;-61
2023/09/25 10:18:43;;;;;;;2.53;2.43;;;;;;;17.52;100.00;97709.03;4919015;29;20215;-62
2023/09/25 10:21:14;;;;;;;3.27;3.03;;;;;;;17.44;100.00;97701.25;4923092;29;20200;-62
2023/09/25 10:23:48;;;;;;;2.80;2.60;;;;;;;17.22;100.00;97693.53;4807102;29;20987;-61
2023/09/25 10:26:18;;;;;;;2.70;2.60;;;;;;;17.15;100.00;97698.97;4920269;29;20628;-63
2023/09/25 10:28:58;;;;;;;2.70;2.50;;;;;;;17.49;100.00;97690.72;4916253;29;20254;-61
2023/09/25 10:31:29;;;;;;;3.10;2.90;;;;;;;17.54;100.00;97685.53;4924271;29;20648;-62
2023/09/25 10:33:59;;;;;;;2.47;2.37;;;;;;;17.70;100.00;97686.06;4883859;29;20574;-62
2023/09/25 10:36:39;;;;;;;2.90;2.70;;;;;;;17.79;100.00;97685.53;4923490;29;20575;-58
2023/09/25 10:39:08;;;;;;;2.60;2.50;;;;;;;17.92;100.00;97676.59;4920030;29;20203;-62
2023/09/25 10:41:36;;;;;;;2.70;2.60;;;;;;;17.91;100.00;97679.50;4923849;29;21183;-63
2023/09/25 10:44:06;;;;;;;2.90;2.70;;;;;;;18.00;100.00;97674.69;4919537;29;21706;-62
2023/09/25 10:46:35;;;;;;;2.87;2.47;;;;;;;18.06;100.00;97666.59;4918500;29;20227;-62
2023/09/25 10:49:03;;;;;;;3.33;3.10;;;;;;;18.15;100.00;97669.81;4918813;29;20746;-61
2023/09/25 10:51:31;;;;;;;3.07;2.87;;;;;;;18.19;100.00;97667.53;4920760;29;20250;-63
2023/09/25 10:53:58;;;;;;;2.83;2.57;;;;;;;18.21;100.00;97662.75;4807190;29;20221;-63
2023/09/25 10:56:26;;;;;;;2.43;2.30;;;;;;;18.22;100.00;97659.03;4923213;29;20231;-62
2023/09/25 10:58:54;;;;;;;2.60;2.40;;;;;;;18.11;100.00;97657.91;4918185;29;20239;-63
2023/09/25 11:01:28;;;;;;;2.93;2.40;;;;;;;18.27;100.00;97658.34;4923504;29;20268;-61
2023/09/25 11:03:59;;;;;;;2.60;2.50;;;;;;;18.20;100.00;97653.88;4884557;29;20702;-62
2023/09/25 11:06:27;;;;;;;2.67;2.57;;;;;;;18.15;100.00;97653.72;4923408;29;20251;-61
2023/09/25 11:08:59;;;;;;;2.73;2.53;;;;;;;18.31;100.00;97651.50;4914964;29;20781;-61
2023/09/25 11:11:29;;;;;;;2.50;2.40;;;;;;;18.48;100.00;97655.25;4922284;29;20310;-61
2023/09/25 11:13:58;;;;;;;2.40;2.30;;;;;;;18.56;100.00;97651.47;4919694;29;20637;-61
2023/09/25 11:16:28;;;;;;;2.63;2.53;;;;;;;18.45;100.00;97653.03;4923100;29;20338;-62
2023/09/25 11:19:07;;;;;;;2.30;2.20;;;;;;;18.48;100.00;97644.53;4917152;29;20220;-63
2023/09/25 11:21:35;;;;;;;2.23;2.10;;;;;;;18.52;100.00;97650.25;4923403;29;20203;-60
2023/09/25 11:24:05;;;;;;;2.70;2.50;;;;;;;18.62;100.00;97645.19;4809126;29;20774;-60
2023/09/25 11:26:36;;;;;;;2.10;2.00;;;;;;;18.72;100.00;97639.28;4920713;29;20307;-61
2023/09/25 11:29:06;;;;;;;2.93;2.73;;;;;;;18.82;100.00;97640.63;4915132;29;20465;-62
2023/09/25 11:31:36;;;;;;;2.03;1.93;;;;;;;18.81;100.00;97645.16;4922641;29;20235;-61
2023/09/25 11:34:24;;;;;;;2.67;2.47;;;;;;;18.79;100.00;97644.56;4919355;29;20219;-61
2023/09/25 11:36:52;;;;;;;2.13;2.00;;;;;;;18.76;100.00;97642.34;4922867;29;20282;-60